logo
App data

Teenage Mutant Ninja Turtles: Mutants in Manhattan

Store | Hub | SteamDB | Site
Developer: PlatinumGames Publisher: Activision
Genre: Action, Adventure
Languages: English, French, Italian, German, Spanish
Tags: Action (47), Adventure (38), Co-op (27), Ninja (26), Hack and Slash (19), Spectacle fighter (18), Character Action Game (14), Beat 'em up (13), Multiplayer (12), Open World (8), Comic Book (8)
Category: Single-player, Multi-player, Co-op, Steam Achievements, Full controller support, Steam Leaderboards
Release date: May 24, 2016
Price: $39.99
Score rank: 24% Userscore: 64% Old userscore: 63%
Owners: 0 .. 20,000
Followers: 6,635
Peak concurrent players yesterday: 1
Playtime total: 00:31 (average) 00:36 (median)

Steam Spy is still in beta, so expect major bugs.

Owners data:

Access restricted.

This feature is only available to users with special access rights. Sorry.

If you want to proceed, you need to register or log in first and then back Steam Spy on Patreon. Look for Indie or Pro pledge.

Don't forget to use the same email as on Steam Spy!

Audience in 2 weeks:

Access restricted.

This feature is only available to users with special access rights. Sorry.

If you want to proceed, you need to register or log in first and then back Steam Spy on Patreon. Look for Indie or Pro pledge.

Don't forget to use the same email as on Steam Spy!

Peak daily concurrent players:

CCU data courtesy of SteamDB. Used with permission.

Hourly concurrent players:

Daily Twitch stats:

Hourly Twitch stats:

YouTube:

The views data is based on top 50 videos uploaded last week. Actual number of views might be more than the number shown.

The displayed number of videos uploaded yesterday is limited to 50, so if there were more videos uploaded, the number will still show 50.

If the game has commonly used word as its name (like "FEAR" or "Volume") its number of Youtube views might be wrong.

Games similar to this one:

# Game Release date
Price
Score rank
(Userscore / Metascore)
Owners
Players
Playtime (Median)
1 Umihara Kawase Nov 2, 2015 $9.9999% (98%)0 .. 20,0000%00:00 (00:00)
2 Strania - The Stella Machina - Nov 24, 2015 $14.99N/A (N/A)0 .. 20,0000%00:00 (00:00)
3 Flywrench Aug 24, 2015 $6.9993% (95%)0 .. 20,0000%00:00 (00:00)
4 Bot Vice Jul 11, 2016 $9.9993% (95%)50,000 .. 100,0000%00:00 (00:00)
5 Supercharged Robot VULKAISER Jun 4, 2015 $4.9993% (95%)20,000 .. 50,0000%00:00 (00:00)
6 Chicken Invaders 3 Jun 8, 2015 $4.9980% (91%)20,000 .. 50,0000%00:00 (00:00)
7 Soft Body May 17, 2016 $9.99N/A (N/A)0 .. 20,0000%00:00 (00:00)
8 Sam & Max 104: Abe Lincoln Must Die! Jun 15, 2007 N/A80% (91%)50,000 .. 100,0000%00:00 (00:00)
9 A Lenda do Herói - O Herói desta Canção Apr 24, 2017 $15.9977% (90%)100,000 .. 200,0000%00:00 (00:00)
10 Below Kryll Sep 7, 2015 $4.9977% (90%)0 .. 20,0000%00:00 (00:00)
11 Inbound Jul 5, 2016 $2.99N/A (N/A)0 .. 20,0000%00:00 (00:00)
12 Super Rad Raygun Nov 15, 2016 $4.99N/A (N/A/64%)0 .. 20,0000%00:00 (00:00)
13 Intrude Aug 1, 2016 $3.9969% (87%)0 .. 20,0000%00:00 (00:00)
14 Rocket Fist May 12, 2016 $4.9966% (86%)0 .. 20,0000%00:00 (00:00)
15 Giga Girl Mar 23, 2016 $2.99N/A (N/A)0 .. 20,0000%00:00 (00:00)
16 SPINGUN Nov 11, 2016 $1.9966% (86%)0 .. 20,0000%00:00 (00:00)
17 N2O: Nitrous Oxide Jun 29, 2015 $4.99N/A (N/A)0 .. 20,0000%00:00 (00:00)
18 Joint Operations: Combined Arms Gold Aug 18, 2009 $19.9966% (86%)0 .. 20,0000%00:00 (00:00)
19 ARCADE GAME SERIES: GALAGA Apr 19, 2016 $3.9966% (86%)50,000 .. 100,0000%00:00 (00:00)
20 Weapon of Choice Sep 23, 2015 $4.9964% (85%)0 .. 20,0000%00:00 (00:00)
21 The Sum of All Fears May 31, 2002 $9.99N/A (N/A/72%)0 .. 20,0000%00:00 (00:00)
22 Earth Overclocked Dec 4, 2015 $9.9964% (85%)20,000 .. 50,0000%00:00 (00:00)
23 Gurgamoth Feb 16, 2016 $4.9964% (85%)20,000 .. 50,0000.56%01:21 (00:27)
24 Dual Core May 26, 2016 $9.99N/A (N/A)0 .. 20,0000%00:00 (00:00)
25 Disney's Chicken Little Oct 20, 2005 $9.9961% (84%)0 .. 20,0000%00:00 (00:00)
26 MDK 2 May 1, 2000 $9.9961% (84%/83%)20,000 .. 50,0003.03%01:05 (00:21)
27 Nandeyanen!? - The 1st Sûtra Jul 22, 2015 $1.99N/A (N/A)0 .. 20,0000%00:00 (00:00)
28 Ittle Dew 2 Nov 15, 2016 $19.9956% (82%)0 .. 20,0000%00:00 (00:00)
29 Rad Rodgers: World One Dec 1, 2016 $19.9956% (82%/72%)0 .. 20,0000%00:00 (00:00)
30 Zenohell Oct 15, 2015 $9.9954% (81%)20,000 .. 50,0000%00:00 (00:00)
31 Cinemaware Anthology: 1986-1991 Nov 14, 2014 $9.9952% (80%)20,000 .. 50,0000%00:00 (00:00)
32 Viking Saga: The Cursed Ring Oct 29, 2015 $2.99N/A (N/A)0 .. 20,0000%00:00 (00:00)
33 NeonXSZ Feb 22, 2016 $14.9950% (79%)0 .. 20,0000%00:00 (00:00)
34 Deadly 30 Jan 8, 2014 $4.9948% (78%)100,000 .. 200,0000%00:00 (00:00)
35 Xenocide Aug 28, 2015 $2.99N/A (N/A)0 .. 20,0000%00:00 (00:00)
36 LUMBERMANCER Jun 28, 2016 $2.99N/A (N/A)0 .. 20,0000%00:00 (00:00)
37 Starchaser: Priestess of the Night Sky Jul 24, 2015 $9.99N/A (N/A)0 .. 20,0000%00:00 (00:00)
38 Olympia Rising Jul 23, 2015 $4.9946% (77%)20,000 .. 50,0000%00:00 (00:00)
39 A Blind Legend Apr 7, 2016 $6.9946% (77%)0 .. 20,0000%00:00 (00:00)
40 Blue Solar: Chaos War Jul 21, 2016 $3.9944% (76%)0 .. 20,0000%00:00 (00:00)
41 A Quiver of Crows Oct 19, 2016 $14.99N/A (N/A)0 .. 20,0000%00:00 (00:00)
42 Gemini: Heroes Reborn Jan 18, 2016 $4.9944% (76%/54%)50,000 .. 100,0000%00:00 (00:00)
43 Dyna Bomb May 13, 2016 $3.99N/A (N/A)0 .. 20,0000%00:00 (00:00)
44 Urban Chaos Nov 30, 1999 $6.9942% (75%)20,000 .. 50,0000%00:00 (00:00)
45 Zombie Vikings Dec 7, 2015 $11.9942% (75%/74%)20,000 .. 50,0000%00:00 (00:00)
46 Mekazoo Nov 14, 2016 $9.9942% (75%/80%)0 .. 20,0000%00:00 (00:00)
47 Arkshot May 19, 2016 $4.9940% (74%)0 .. 20,0000%00:00 (00:00)
48 Extravaganza Rising Jul 21, 2016 N/AN/A (N/A)20,000 .. 50,0000%00:00 (00:00)
49 Game Type Sep 23, 2015 $2.99N/A (N/A)0 .. 20,0001.92%01:04 (00:21)
50 FIVE: Champions of Canaan Sep 27, 2016 $3.9935% (71%)20,000 .. 50,0000%00:00 (00:00)
51 Smithy Jun 3, 2016 $3.99N/A (N/A)50,000 .. 100,0000%00:00 (00:00)
52 Ladra Nov 13, 2015 $1.99N/A (N/A)20,000 .. 50,0000%00:00 (00:00)
53 Wyv and Keep: The Temple of the Lost Idol Aug 8, 2014 $14.9931% (69%)20,000 .. 50,0000%00:00 (00:00)
54 Death Tractor Oct 29, 2015 $0.99N/A (N/A)0 .. 20,0000%00:00 (00:00)
55 Battle Of Europe Mar 23, 2006 $9.99N/A (N/A/54%)0 .. 20,0000%00:00 (00:00)
56 Darkest of Days Sep 2009 $19.9931% (69%/51%)0 .. 20,0007.69%00:22 (00:07)
57 Deadlight: Director's Cut Jun 21, 2016 $11.9931% (69%)100,000 .. 200,0000.33%05:26 (01:48)
58 Tahira: Echoes of the Astral Empire Aug 31, 2016 $14.9928% (67%/66%)20,000 .. 50,0000%00:00 (00:00)
59 Traverser Jul 9, 2015 $14.9927% (66%/61%)0 .. 20,0000%00:00 (00:00)
60 Urban Pirate Jun 17, 2016 $6.99N/A (N/A)0 .. 20,0000%00:00 (00:00)
61 ARMA: Combat Operations Mar 12, 2008 $1.5927% (66%/74%)20,000 .. 50,0000%00:00 (00:00)
62 Tank Brawl Apr 20, 2016 $4.99N/A (N/A)0 .. 20,0000%00:00 (00:00)
63 BIOS Dec 13, 2016 $14.9924% (64%)0 .. 20,0000%00:00 (00:00)
64 Fair Strike Feb 5, 2004 $3.99N/A (N/A/56%)0 .. 20,0000%00:00 (00:00)
65 Zoo Rampage Jul 9, 2014 $3.9924% (64%)20,000 .. 50,0000%00:00 (00:00)
66 Overruled! Sep 15, 2015 $12.9923% (63%)20,000 .. 50,0000%00:00 (00:00)
67 Momento Temporis: Light from the Deep Oct 27, 2016 $4.99N/A (N/A)0 .. 20,0000%00:00 (00:00)
68 Revenge of Roger Rouge Apr 22, 2016 $0.99N/A (N/A)20,000 .. 50,0000.64%02:50 (01:30)
69 Mytheon Jul 13, 2010 $9.9921% (61%)0 .. 20,0000%00:00 (00:00)
70 Pixel-Warfare: Pro Sep 20, 2016 $0.9921% (61%)50,000 .. 100,0000%00:00 (00:00)
71 Lolly Joe Aug 5, 2016 $2.99N/A (N/A)0 .. 20,0006.67%03:10 (01:03)
72 Cubway Aug 11, 2016 $3.9919% (59%)50,000 .. 100,0000%00:00 (00:00)
73 Nightmare on Azathoth Oct 30, 2015 $0.99N/A (N/A)0 .. 20,0000%00:00 (00:00)
74 Stay Close Oct 14, 2016 $8.9918% (58%)20,000 .. 50,0000%00:00 (00:00)
75 Sir! I'd Like To Report A Bug! Oct 19, 2015 $1.99N/A (N/A)0 .. 20,0000%00:00 (00:00)
76 E.T. Armies Mar 3, 2016 $14.9918% (58%/54%)20,000 .. 50,0002.22%03:33 (01:11)
77 VR Journey Dec 15, 2016 $0.517% (57%)20,000 .. 50,0001.14%03:57 (01:34)
78 Operation: Matriarchy Nov 20, 2005 $5.99N/A (N/A)0 .. 20,0000%00:00 (00:00)
79 Exodus from the Earth Oct 24, 2008 $14.9916% (56%)0 .. 20,0000%00:00 (00:00)
80 Rocko's Quest Jul 30, 2003 $4.99N/A (N/A/41%)0 .. 20,0000%00:00 (00:00)
81 Elements: Epic Heroes Dec 21, 2015 $6.99N/A (N/A)0 .. 20,0000%00:00 (00:00)
82 GAROU: MARK OF THE WOLVES Dec 6, 2016 $9.9914% (54%)20,000 .. 50,0000%00:00 (00:00)
83 Assassins vs Pirates May 10, 2016 $7.9914% (53%)0 .. 20,0000%00:00 (00:00)
84 Fastigium Dec 17, 2016 FreeN/A (N/A)0 .. 20,0004.17%00:01 (00:00)
85 SHOCK TROOPERS 2nd Squad Sep 28, 2016 $7.99N/A (N/A)0 .. 20,0000%00:00 (00:00)
86 Coniclysm Mar 26, 2010 $4.99N/A (N/A)0 .. 20,0000%00:00 (00:00)
87 Beatbuddy: On Tour Dec 4, 2015 $6.99N/A (N/A)0 .. 20,0000%00:00 (00:00)
88 Princess Kaguya: Legend of the Moon Warrior Aug 4, 2015 $10.9913% (52%)0 .. 20,0000%00:00 (00:00)
89 B.A.D Battle Armor Division Aug 18, 2015 $5.99N/A (N/A)0 .. 20,0000%00:00 (00:00)
90 Megamagic: Wizards of the Neon Age Apr 20, 2016 $9.9911% (50%/67%)20,000 .. 50,0000%00:00 (00:00)
91 Marvel: Ultimate Alliance 2 Jul 26, 2016 N/A10% (48%)0 .. 20,0000%00:00 (00:00)
92 Mortos Nov 14, 2016 $0.9910% (48%)0 .. 20,0000%00:00 (00:00)
93 Blasting Agent: Ultimate Edition Aug 17, 2016 $2.99N/A (N/A)0 .. 20,0000%00:00 (00:00)
94 Damage Inc. Pacific Squadron WWII Aug 28, 2012 $39.99N/A (N/A)0 .. 20,0000%00:00 (00:00)
95 Super Dungeon Bros Nov 1, 2016 $19.997% (42%)0 .. 20,0000%00:00 (00:00)
96 Dawn of Warriors Oct 7, 2016 $4.99N/A (N/A)0 .. 20,0000%00:00 (00:00)
97 ! That Bastard Is Trying To Steal Our Gold ! Mar 1, 2016 $3.997% (40%)100,000 .. 200,0000%00:00 (00:00)
98 Twin Sector Sep 16, 2009 $1.496% (39%)50,000 .. 100,0000%00:00 (00:00)
99 Red Goddess: Inner World Sep 1, 2015 $9.996% (39%/53%)0 .. 20,0000%00:00 (00:00)
100 Zombie Apocalypse: Escape The Undead City Nov 25, 2013 $0.995% (37%)0 .. 20,0000%00:00 (00:00)
101 Drug Wars Mar 17, 2009 $4.99N/A (N/A/35%)0 .. 20,0000%00:00 (00:00)
102 Ku: Shroud of the Morrigan Mar 17, 2014 $4.993% (30%)20,000 .. 50,0000%00:00 (00:00)
103 Alone in the Dark: Illumination Jun 11, 2015 $19.992% (23%)0 .. 20,0000%00:00 (00:00)
104 Elite vs. Freedom May 31, 2016 $4.992% (21%)0 .. 20,0000%00:00 (00:00)
105 Kabitis Jun 2, 2016 $1.292% (18%)50,000 .. 100,0000%00:00 (00:00)
106 Project Pulsation Dec 15, 2015 $4.992% (15%)200,000 .. 500,0000.16%07:36 (02:32)
107 Barbarian Brawl Feb 12, 2015 $4.99N/A (N/A)0 .. 20,0000%00:00 (00:00)
108 Systematic Immunity May 20, 2016 $6.99N/A (N/A)0 .. 20,0002.44%01:11 (00:23)
109 Animal Gods Oct 12, 2015 $9.99N/A (N/A/50%)0 .. 20,0000%00:00 (00:00)
110 Hush Hush - Unlimited Survival Horror Mar 25, 2016 $1.99N/A (N/A)0 .. 20,0000%00:00 (00:00)
111 Unearthing Colossal Oct 21, 2016 $14.99N/A (N/A)0 .. 20,0001.92%16:55 (05:38)
112 Anthelion Jul 25, 2016 $14.99N/A (N/A)0 .. 20,0000%00:00 (00:00)
113 Porradaria Upgrade Oct 2, 2013 $4.99N/A (N/A)20,000 .. 50,0000%00:00 (00:00)
114 SWR JST DX Selective Memory Erase Effect Apr 20, 2015 $4.99N/A (N/A)0 .. 20,0000%00:00 (00:00)
115 The Escapist Sep 15, 2014 $4.99N/A (N/A)0 .. 20,0000%00:00 (00:00)
116 Doomed Kingdoms Dec 12, 2016 $0.51N/A (N/A)200,000 .. 500,0000.27%02:19 (01:32)
117 Izeriya Apr 28, 2016 $0.99N/A (N/A)0 .. 20,0000%00:00 (00:00)
118 Trial by Viking Mar 29, 2016 $11.99N/A (N/A)0 .. 20,0000%00:00 (00:00)
119 Miaou Moon Aug 16, 2016 $5.99N/A (N/A)0 .. 20,0002.22%02:01 (00:40)

Tags over time:

Access restricted.

This feature is only available to users with special access rights. Sorry.

If you want to proceed, you need to register or log in first and then back Steam Spy on Patreon. Look for Indie or Pro pledge.

Don't forget to use the same email as on Steam Spy!

Owners of this game also own:

Access restricted.

This feature is only available to users with special access rights. Sorry.

If you want to proceed, you need to register or log in first and then back Steam Spy on Patreon. Look for Indie or Pro pledge.

Don't forget to use the same email as on Steam Spy!

Playtime distribution:

Access restricted.

This feature is only available to users with special access rights. Sorry.

If you want to proceed, you need to register or log in first and then back Steam Spy on Patreon. Look for Indie or Pro pledge.

Don't forget to use the same email as on Steam Spy!

Playtime (2 weeks):

Access restricted.

This feature is only available to users with special access rights. Sorry.

If you want to proceed, you need to register or log in first and then back Steam Spy on Patreon. Look for Indie or Pro pledge.

Don't forget to use the same email as on Steam Spy!

User reviews:

Login required.

Please register or log in to see this information.